Time;durP1;ratioP1;P1;durP2;ratioP2;P2;SDS_P1;SDS_P2;PMS_P1;PMS_P2;Temp;Humidity;BMP_temperature;BMP_pressure;BME280_temperature;BME280_humidity;BME280_pressure;Samples;Min_cycle;Max_cycle;Signal;HPM_P1;HPM_P2
2021/04/12 00:01:39;;;;;;;5.07;4.57;;;5.20;99.90;;;;;;4966047;28;20512;-84
2021/04/12 00:04:11;;;;;;;5.60;5.00;;;5.20;99.90;;;;;;4945135;28;21010;-83
2021/04/12 00:06:49;;;;;;;5.70;5.07;;;5.20;99.90;;;;;;4943375;28;20502;-84
2021/04/12 00:09:33;;;;;;;5.43;4.80;;;5.20;99.90;;;;;;4970720;28;20456;-84
2021/04/12 00:12:13;;;;;;;4.80;4.40;;;5.10;99.90;;;;;;4963922;28;20446;-84
2021/04/12 00:14:49;;;;;;;4.93;4.43;;;5.00;99.90;;;;;;4951986;28;20970;-84
2021/04/12 00:17:17;;;;;;;4.17;3.77;;;5.00;99.90;;;;;;4956839;28;20441;-84
2021/04/12 00:19:43;;;;;;;4.00;3.70;;;4.90;99.90;;;;;;4973397;28;20452;-84
2021/04/12 00:22:08;;;;;;;3.37;3.07;;;4.80;99.90;;;;;;4970910;28;20835;-83
2021/04/12 00:24:54;;;;;;;3.97;3.57;;;4.80;99.90;;;;;;4969694;28;20201;-84
2021/04/12 00:27:26;;;;;;;2.87;2.67;;;4.60;99.90;;;;;;4971808;28;20192;-84
2021/04/12 00:30:04;;;;;;;3.20;2.60;;;4.60;99.90;;;;;;4955419;28;20483;-84
2021/04/12 00:32:48;;;;;;;3.70;2.90;;;4.40;99.90;;;;;;4963247;28;20486;-84
2021/04/12 00:35:43;;;;;;;3.27;2.97;;;4.40;99.90;;;;;;4951500;28;20525;-83
2021/04/12 00:38:47;;;;;;;3.43;3.13;;;4.20;99.90;;;;;;4967981;28;20484;-84
2021/04/12 00:41:31;;;;;;;2.80;2.60;;;4.20;99.90;;;;;;4957784;28;21043;-84
2021/04/12 00:44:34;;;;;;;3.70;3.40;;;4.20;99.90;;;;;;4970772;28;20829;-85
2021/04/12 00:47:25;;;;;;;3.10;2.83;;;4.30;99.90;;;;;;4957720;28;20963;-84
2021/04/12 00:50:30;;;;;;;3.20;2.90;;;4.30;99.90;;;;;;4967668;28;20456;-84
2021/04/12 00:53:14;;;;;;;3.47;3.17;;;4.20;99.90;;;;;;4948574;28;20454;-84
2021/04/12 00:56:07;;;;;;;2.90;2.43;;;4.10;99.90;;;;;;4953834;28;21646;-83
2021/04/12 00:59:05;;;;;;;3.40;3.20;;;4.00;99.90;;;;;;4955159;28;20448;-84
2021/04/12 01:01:44;;;;;;;2.83;2.63;;;4.00;99.90;;;;;;4968760;28;20506;-83
2021/04/12 01:04:39;;;;;;;2.97;2.77;;;3.90;99.90;;;;;;4965431;28;20595;-83
2021/04/12 01:07:17;;;;;;;3.43;3.13;;;3.80;99.90;;;;;;4953433;28;20460;-83
2021/04/12 01:10:20;;;;;;;3.83;3.43;;;3.80;99.90;;;;;;4953593;28;20573;-84
2021/04/12 01:13:20;;;;;;;3.37;3.07;;;3.80;99.90;;;;;;4955493;28;20447;-83
2021/04/12 01:16:22;;;;;;;3.37;3.07;;;3.80;99.90;;;;;;4969933;28;20464;-84
2021/04/12 01:18:57;;;;;;;4.50;4.10;;;3.70;99.90;;;;;;4973122;28;20533;-84
2021/04/12 01:21:38;;;;;;;3.37;3.17;;;3.80;99.90;;;;;;4971691;28;21929;-84
2021/04/12 01:24:38;;;;;;;4.90;3.80;;;3.80;99.90;;;;;;4969723;28;20445;-84
2021/04/12 01:27:42;;;;;;;3.47;3.17;;;3.80;99.90;;;;;;4947327;28;20450;-84
2021/04/12 01:30:37;;;;;;;3.80;3.50;;;3.70;99.90;;;;;;4958483;28;20449;-84
2021/04/12 01:33:21;;;;;;;4.40;4.00;;;3.70;99.90;;;;;;4972733;28;20445;-85
2021/04/12 01:36:15;;;;;;;3.90;3.50;;;3.80;99.90;;;;;;4961421;28;20484;-85
2021/04/12 01:39:30;;;;;;;4.13;3.73;;;3.70;99.90;;;;;;4971072;28;20461;-85
2021/04/12 01:42:04;;;;;;;4.03;3.70;;;3.60;99.90;;;;;;4968362;28;20481;-85
2021/04/12 01:44:53;;;;;;;4.30;3.90;;;3.60;99.90;;;;;;4966755;28;20620;-85
2021/04/12 01:47:37;;;;;;;3.53;3.23;;;3.60;99.90;;;;;;4969621;28;20541;-85
2021/04/12 01:50:21;;;;;;;4.30;3.90;;;3.60;99.90;;;;;;4973696;28;20552;-85
2021/04/12 01:52:46;;;;;;;5.07;4.57;;;3.60;99.90;;;;;;4970553;28;20962;-85
2021/04/12 01:55:15;;;;;;;4.60;4.20;;;3.50;99.90;;;;;;4970756;28;20453;-85
2021/04/12 01:58:14;;;;;;;3.57;3.27;;;3.50;99.90;;;;;;4971733;28;20194;-84
2021/04/12 02:01:18;;;;;;;4.77;4.30;;;3.50;99.90;;;;;;4949645;28;20823;-84
2021/04/12 02:04:11;;;;;;;5.20;4.37;;;3.40;99.90;;;;;;4891697;29;20508;-83
2021/04/12 02:06:58;;;;;;;4.53;3.90;;;3.40;99.90;;;;;;4934804;28;20466;-84
2021/04/12 02:09:57;;;;;;;4.40;4.00;;;3.50;99.90;;;;;;4977938;28;20514;-84
2021/04/12 02:12:49;;;;;;;4.40;4.00;;;3.40;99.90;;;;;;4973239;28;20974;-84
2021/04/12 02:15:45;;;;;;;4.30;3.87;;;3.30;99.90;;;;;;4956403;28;20549;-83
2021/04/12 02:18:24;;;;;;;4.70;4.17;;;3.20;99.90;;;;;;4954681;28;20714;-84
2021/04/12 02:21:08;;;;;;;4.77;4.30;;;3.20;99.90;;;;;;4958602;28;20456;-84
2021/04/12 02:23:58;;;;;;;5.27;4.77;;;3.20;99.90;;;;;;4959598;28;20464;-84
2021/04/12 02:26:50;;;;;;;5.77;5.27;;;3.30;99.90;;;;;;4971948;28;20950;-84
2021/04/12 02:29:32;;;;;;;5.60;5.00;;;3.20;99.90;;;;;;4959280;28;20498;-85
2021/04/12 02:32:23;;;;;;;5.13;4.40;;;3.30;99.90;;;;;;4957260;28;20536;-85
2021/04/12 02:35:34;;;;;;;6.17;5.40;;;3.30;99.90;;;;;;4968491;28;20452;-85
2021/04/12 02:38:10;;;;;;;5.30;4.70;;;3.30;99.90;;;;;;4975000;28;20442;-85
2021/04/12 02:40:50;;;;;;;5.33;4.70;;;3.30;99.90;;;;;;4987625;28;20959;-85
2021/04/12 02:43:22;;;;;;;6.20;5.17;;;3.20;99.90;;;;;;4956087;28;20501;-85
2021/04/12 02:45:57;;;;;;;6.10;5.50;;;3.10;99.90;;;;;;4951654;28;20499;-84
2021/04/12 02:48:44;;;;;;;5.30;4.80;;;3.20;99.90;;;;;;4978340;28;20444;-84
2021/04/12 02:51:31;;;;;;;6.30;5.30;;;3.20;99.90;;;;;;4976308;28;20542;-85
2021/04/12 02:54:25;;;;;;;5.33;4.53;;;3.20;99.90;;;;;;4960517;28;20441;-85
2021/04/12 02:57:08;;;;;;;6.37;5.07;;;3.30;99.90;;;;;;4958904;28;20448;-85
2021/04/12 02:59:47;;;;;;;4.87;4.17;;;3.20;99.90;;;;;;4988892;28;20526;-85
2021/04/12 03:02:34;;;;;;;5.87;5.23;;;3.10;99.90;;;;;;4951275;28;20582;-84
2021/04/12 03:05:09;;;;;;;5.60;5.00;;;3.10;99.90;;;;;;4960369;28;21004;-84
2021/04/12 03:07:53;;;;;;;6.10;5.20;;;3.00;99.90;;;;;;4972849;28;21674;-85
2021/04/12 03:11:03;;;;;;;6.70;5.13;;;3.00;99.90;;;;;;4958886;28;20456;-84
2021/04/12 03:14:07;;;;;;;6.13;5.53;;;3.10;99.90;;;;;;4963415;28;20540;-84
2021/04/12 03:17:01;;;;;;;6.93;5.80;;;3.10;99.90;;;;;;4991326;28;20449;-84
2021/04/12 03:19:27;;;;;;;6.90;6.00;;;3.20;99.90;;;;;;4969333;28;20859;-84
2021/04/12 03:22:22;;;;;;;7.07;6.37;;;3.20;99.90;;;;;;4955061;28;20534;-83
2021/04/12 03:25:19;;;;;;;7.00;5.63;;;3.10;99.90;;;;;;4973909;28;20276;-83
2021/04/12 03:28:07;;;;;;;6.23;5.47;;;3.10;99.90;;;;;;4972444;28;20456;-83
2021/04/12 03:31:01;;;;;;;5.93;5.33;;;3.10;99.90;;;;;;4972181;28;22260;-84
2021/04/12 03:33:52;;;;;;;7.20;5.50;;;3.10;99.90;;;;;;4956524;28;20458;-84
2021/04/12 03:36:55;;;;;;;6.73;5.70;;;3.10;99.90;;;;;;4941541;28;20509;-84
2021/04/12 03:39:44;;;;;;;7.17;6.47;;;3.00;99.90;;;;;;4964496;28;21072;-84
2021/04/12 03:42:49;;;;;;;7.47;6.10;;;3.00;99.90;;;;;;4948574;28;20513;-84
2021/04/12 03:45:44;;;;;;;8.90;6.60;;;3.10;99.90;;;;;;4926504;28;20782;-85
2021/04/12 03:48:24;;;;;;;7.00;6.30;;;3.10;99.90;;;;;;4947145;28;20473;-84
2021/04/12 03:50:52;;;;;;;6.50;5.70;;;3.00;99.90;;;;;;4971895;28;20449;-84
2021/04/12 03:53:36;;;;;;;7.00;5.53;;;3.10;99.90;;;;;;4974072;28;21008;-84
2021/04/12 03:56:21;;;;;;;6.70;5.30;;;3.00;99.90;;;;;;4958780;28;20519;-84
2021/04/12 03:59:07;;;;;;;7.63;6.27;;;3.00;99.90;;;;;;4955771;28;20453;-84
2021/04/12 04:02:00;;;;;;;7.63;6.23;;;3.00;99.90;;;;;;4970296;28;20467;-82
2021/04/12 04:04:46;;;;;;;6.00;5.37;;;3.10;99.90;;;;;;4966616;28;20445;-85
2021/04/12 04:07:39;;;;;;;6.53;5.40;;;3.10;99.90;;;;;;4974319;28;20457;-85
2021/04/12 04:10:59;;;;;;;8.40;7.23;;;3.10;99.90;;;;;;4950798;28;20461;-85
2021/04/12 04:13:24;;;;;;;6.90;6.20;;;3.10;99.90;;;;;;4907338;28;20482;-84
2021/04/12 04:16:09;;;;;;;8.37;6.70;;;3.10;99.90;;;;;;4972169;28;20535;-84
2021/04/12 04:18:43;;;;;;;6.83;6.00;;;3.10;99.90;;;;;;4964139;28;20240;-84
2021/04/12 04:21:41;;;;;;;7.90;6.57;;;3.10;99.90;;;;;;4976199;28;20931;-84
2021/04/12 04:24:25;;;;;;;6.93;6.23;;;3.10;99.90;;;;;;4958131;28;20903;-84
2021/04/12 04:27:09;;;;;;;12.50;6.50;;;3.10;99.90;;;;;;4973654;28;20449;-84
2021/04/12 04:29:56;;;;;;;8.57;6.00;;;3.20;99.90;;;;;;4966022;28;20539;-83
2021/04/12 04:32:53;;;;;;;7.20;5.87;;;3.20;99.90;;;;;;4964489;28;20528;-84
2021/04/12 04:35:57;;;;;;;5.97;5.33;;;3.20;99.90;;;;;;4948310;28;20454;-84
2021/04/12 04:38:57;;;;;;;9.30;5.10;;;3.20;99.90;;;;;;4954977;28;20456;-85
2021/04/12 04:41:42;;;;;;;8.40;5.10;;;3.20;99.90;;;;;;4960345;28;20484;-83
2021/04/12 04:44:36;;;;;;;9.10;6.47;;;3.10;99.90;;;;;;4962710;28;20506;-84
2021/04/12 04:47:16;;;;;;;7.63;5.97;;;3.10;99.90;;;;;;4976692;28;20445;-85
2021/04/12 04:50:00;;;;;;;6.40;5.73;;;3.10;99.90;;;;;;4976013;28;21574;-85
2021/04/12 04:52:37;;;;;;;6.97;6.10;;;3.10;99.90;;;;;;4970124;28;20446;-85
2021/04/12 04:55:21;;;;;;;9.87;7.17;;;3.00;99.90;;;;;;4972351;28;20538;-85
2021/04/12 04:58:03;;;;;;;10.07;6.60;;;3.00;99.90;;;;;;4951950;28;21550;-85
2021/04/12 05:00:47;;;;;;;7.47;6.70;;;3.10;99.90;;;;;;4955007;28;20467;-88
2021/04/12 05:03:54;;;;;;;8.70;7.17;;;3.10;99.90;;;;;;4972739;28;20448;-88
2021/04/12 05:06:53;;;;;;;8.03;6.97;;;3.10;99.90;;;;;;4967633;28;20941;-84
2021/04/12 05:09:45;;;;;;;9.00;6.30;;;3.20;99.90;;;;;;4949626;28;20568;-86
2021/04/12 05:12:47;;;;;;;6.97;5.90;;;3.20;99.90;;;;;;4966123;28;20678;-87
2021/04/12 05:15:34;;;;;;;7.43;6.63;;;3.10;99.90;;;;;;4967006;28;20451;-88
2021/04/12 05:18:05;;;;;;;7.93;6.93;;;3.10;99.90;;;;;;4973119;28;20933;-88
2021/04/12 05:21:02;;;;;;;7.40;6.13;;;3.10;99.90;;;;;;4972924;28;20459;-89
2021/04/12 05:23:49;;;;;;;10.13;6.70;;;3.10;99.90;;;;;;4955947;28;20521;-86
2021/04/12 05:26:30;;;;;;;8.50;6.53;;;3.10;99.90;;;;;;4952718;28;20652;-86
2021/04/12 05:29:35;;;;;;;7.40;6.33;;;3.20;99.90;;;;;;4955534;28;20457;-87
2021/04/12 05:32:33;;;;;;;7.83;6.70;;;3.00;99.90;;;;;;4925277;28;21831;-85
2021/04/12 05:34:59;;;;;;;9.43;7.13;;;3.10;99.90;;;;;;4932672;28;20438;-87
2021/04/12 05:37:52;;;;;;;8.90;6.93;;;3.00;99.90;;;;;;4947483;28;20550;-84
2021/04/12 05:40:43;;;;;;;9.17;6.83;;;3.10;99.90;;;;;;4961843;28;20201;-86
2021/04/12 05:43:12;;;;;;;7.40;5.97;;;3.10;99.90;;;;;;4947905;28;22744;-85
2021/04/12 05:46:20;;;;;;;6.93;6.10;;;3.10;99.90;;;;;;4954445;28;20464;-87
2021/04/12 05:49:03;;;;;;;7.17;6.10;;;3.00;99.90;;;;;;4946972;28;20476;-86
2021/04/12 05:51:29;;;;;;;10.70;9.47;;;3.00;99.90;;;;;;4950995;28;20433;-87
2021/04/12 05:54:14;;;;;;;10.73;6.47;;;2.90;99.90;;;;;;4972184;28;20901;-88
2021/04/12 05:57:06;;;;;;;7.50;6.10;;;2.90;99.90;;;;;;4968280;28;20190;-85
2021/04/12 05:59:53;;;;;;;7.80;6.07;;;3.00;99.90;;;;;;4923393;28;20458;-88
2021/04/12 06:02:54;;;;;;;8.40;6.90;;;3.00;99.90;;;;;;4972328;28;20804;-86
2021/04/12 06:05:33;;;;;;;7.60;6.80;;;3.00;99.90;;;;;;4883716;29;22301;-87
2021/04/12 06:08:23;;;;;;;9.30;7.67;;;3.10;99.90;;;;;;4935243;28;20485;-85
2021/04/12 06:11:11;;;;;;;9.23;8.23;;;3.10;99.90;;;;;;4974321;28;20448;-85
2021/04/12 06:14:18;;;;;;;7.10;6.27;;;3.00;99.90;;;;;;4971914;28;20433;-86
2021/04/12 06:17:18;;;;;;;7.80;7.00;;;3.00;99.90;;;;;;4971605;28;20503;-88
2021/04/12 06:20:12;;;;;;;8.00;6.30;;;3.00;99.90;;;;;;4952911;28;20518;-86
2021/04/12 06:23:15;;;;;;;7.87;6.97;;;3.10;99.90;;;;;;4940218;28;20844;-86
2021/04/12 06:26:25;;;;;;;7.90;6.27;;;3.00;99.90;;;;;;4950232;28;20496;-86
2021/04/12 06:28:59;;;;;;;6.40;5.70;;;2.90;99.90;;;;;;4936928;28;20453;-86
2021/04/12 06:31:47;;;;;;;8.50;6.70;;;3.00;99.90;;;;;;4965487;28;20455;-85
2021/04/12 06:34:41;;;;;;;7.60;6.53;;;2.90;99.90;;;;;;4972228;28;20450;-85
2021/04/12 06:37:40;;;;;;;8.07;6.50;;;2.80;99.90;;;;;;4968896;28;20462;-87
2021/04/12 06:40:24;;;;;;;8.17;6.70;;;2.90;99.90;;;;;;4952897;28;20535;-86
2021/04/12 06:43:28;;;;;;;8.50;7.20;;;3.00;99.90;;;;;;4982953;28;20552;-85
2021/04/12 06:46:31;;;;;;;8.10;6.47;;;2.90;99.90;;;;;;4957095;28;20467;-84
2021/04/12 06:49:34;;;;;;;9.93;7.40;;;3.10;99.90;;;;;;4962341;28;20527;-86
2021/04/12 06:52:26;;;;;;;7.80;6.50;;;3.20;99.90;;;;;;4969645;28;20453;-88
2021/04/12 06:55:20;;;;;;;8.60;7.23;;;3.20;99.90;;;;;;4957712;28;21136;-86
2021/04/12 06:58:09;;;;;;;9.63;7.40;;;3.20;99.90;;;;;;4954085;28;20450;-86
2021/04/12 07:01:22;;;;;;;9.00;8.10;;;3.30;99.90;;;;;;4961545;28;20453;-85
2021/04/12 07:04:26;;;;;;;9.63;7.37;;;3.30;99.90;;;;;;4965160;28;20907;-85
2021/04/12 07:07:00;;;;;;;10.07;8.37;;;3.40;99.90;;;;;;4975239;28;20798;-85
2021/04/12 07:10:05;;;;;;;9.77;7.13;;;3.60;99.90;;;;;;4967646;28;21020;-86
2021/04/12 07:12:58;;;;;;;9.23;7.40;;;3.70;99.90;;;;;;4958459;28;20460;-84
2021/04/12 07:15:35;;;;;;;9.47;8.47;;;3.80;99.90;;;;;;4971546;28;20523;-85
2021/04/12 07:18:22;;;;;;;9.00;7.70;;;3.80;99.90;;;;;;4971246;28;20507;-85
2021/04/12 07:21:36;;;;;;;8.37;7.53;;;3.80;99.90;;;;;;4974294;28;20446;-84
2021/04/12 07:24:49;;;;;;;10.10;7.37;;;3.70;99.90;;;;;;4973323;28;20810;-85
2021/04/12 07:27:21;;;;;;;8.00;6.93;;;3.70;99.90;;;;;;4941070;28;20451;-87
2021/04/12 07:30:26;;;;;;;9.63;7.60;;;3.80;99.90;;;;;;4974592;28;20449;-85
2021/04/12 07:33:13;;;;;;;10.90;8.27;;;3.90;99.90;;;;;;4970123;28;21338;-85
2021/04/12 07:36:02;;;;;;;12.90;7.70;;;3.90;99.90;;;;;;4961607;28;20510;-84
2021/04/12 07:38:52;;;;;;;8.97;8.00;;;4.00;99.90;;;;;;4947652;28;20468;-85
2021/04/12 07:41:45;;;;;;;7.90;7.10;;;4.00;99.90;;;;;;4969337;28;20463;-85
2021/04/12 07:44:49;;;;;;;10.60;8.63;;;4.10;99.90;;;;;;4964638;28;20456;-86
2021/04/12 07:47:35;;;;;;;10.73;8.03;;;4.10;99.90;;;;;;4983783;28;20444;-85
2021/04/12 07:50:41;;;;;;;9.77;8.43;;;4.20;99.90;;;;;;4958855;28;20441;-86
2021/04/12 07:53:43;;;;;;;12.67;8.53;;;4.20;99.90;;;;;;4960907;28;20439;-85
2021/04/12 07:56:42;;;;;;;11.90;9.23;;;4.10;99.90;;;;;;4974149;28;20453;-85
2021/04/12 07:59:43;;;;;;;12.20;9.50;;;4.00;99.90;;;;;;4955458;28;21836;-85
2021/04/12 08:02:34;;;;;;;12.70;10.00;;;3.90;99.90;;;;;;4951410;28;20476;-85
2021/04/12 08:05:33;;;;;;;12.63;10.50;;;4.00;99.90;;;;;;4976079;28;20834;-85
2021/04/12 08:08:36;;;;;;;11.40;9.70;;;4.10;99.90;;;;;;4952120;28;20437;-83
2021/04/12 08:11:30;;;;;;;15.20;10.57;;;4.10;99.90;;;;;;4964753;28;20467;-85
2021/04/12 08:14:14;;;;;;;13.90;10.33;;;3.90;99.90;;;;;;4970148;28;20535;-86
2021/04/12 08:17:28;;;;;;;13.37;10.40;;;4.00;99.90;;;;;;4974809;28;20448;-84
2021/04/12 08:20:15;;;;;;;16.60;12.43;;;4.20;99.90;;;;;;4971639;28;20457;-85
2021/04/12 08:22:52;;;;;;;13.90;10.47;;;4.10;99.90;;;;;;4977707;28;20486;-84
2021/04/12 08:25:52;;;;;;;15.17;12.37;;;4.10;99.90;;;;;;4959994;28;20440;-84
2021/04/12 08:28:27;;;;;;;15.30;11.67;;;4.10;99.90;;;;;;4959027;28;20533;-85
2021/04/12 08:31:24;;;;;;;13.57;10.67;;;4.10;99.90;;;;;;4973914;28;20988;-84
2021/04/12 08:34:01;;;;;;;16.50;11.40;;;4.10;99.90;;;;;;4973688;28;20917;-86
2021/04/12 08:36:49;;;;;;;18.03;12.33;;;4.20;99.90;;;;;;4987949;28;20460;-86
2021/04/12 08:39:35;;;;;;;14.77;11.77;;;4.40;99.90;;;;;;4965905;28;20449;-86
2021/04/12 08:42:19;;;;;;;15.87;12.70;;;4.70;99.90;;;;;;4946708;28;20482;-86
2021/04/12 08:45:12;;;;;;;13.93;11.53;;;4.80;99.90;;;;;;4972463;28;20449;-87
2021/04/12 08:47:50;;;;;;;14.53;11.83;;;4.90;99.90;;;;;;4972884;28;20506;-87
2021/04/12 08:50:38;;;;;;;15.87;12.30;;;5.00;99.90;;;;;;4960831;28;20562;-86
2021/04/12 08:53:31;;;;;;;15.37;12.30;;;5.20;99.90;;;;;;4949816;28;20452;-87
2021/04/12 08:56:31;;;;;;;14.50;11.10;;;5.20;99.90;;;;;;4960382;28;20620;-85
2021/04/12 08:59:32;;;;;;;14.30;11.27;;;5.10;99.90;;;;;;4963765;28;20452;-85
2021/04/12 09:02:16;;;;;;;20.00;10.70;;;4.90;99.90;;;;;;4940094;28;20473;-86
2021/04/12 09:05:20;;;;;;;12.60;11.30;;;4.80;99.90;;;;;;4965121;28;20520;-85
2021/04/12 09:08:13;;;;;;;13.13;11.40;;;4.80;99.90;;;;;;4961481;28;20440;-85
2021/04/12 09:11:06;;;;;;;13.93;11.33;;;4.90;99.90;;;;;;4973177;28;20444;-83
2021/04/12 09:13:31;;;;;;;12.13;10.50;;;5.00;99.90;;;;;;4972442;28;20525;-82
2021/04/12 09:16:31;;;;;;;13.63;11.43;;;4.90;99.90;;;;;;4959362;28;20449;-83
2021/04/12 09:19:35;;;;;;;17.10;10.40;;;4.90;99.90;;;;;;4957155;28;20190;-84
2021/04/12 09:22:28;;;;;;;13.83;11.23;;;5.00;99.90;;;;;;4955470;28;20495;-84
2021/04/12 09:25:28;;;;;;;13.67;11.03;;;5.00;99.90;;;;;;4958252;28;20543;-84
2021/04/12 09:28:19;;;;;;;13.60;11.07;;;5.30;99.90;;;;;;4958151;28;20871;-83
2021/04/12 09:31:23;;;;;;;12.20;11.00;;;5.20;99.90;;;;;;4972848;28;20450;-83
2021/04/12 09:34:07;;;;;;;14.37;11.80;;;5.10;99.90;;;;;;4953113;28;20504;-84
2021/04/12 09:36:54;;;;;;;13.20;10.80;;;5.40;99.90;;;;;;4975041;28;20532;-83
2021/04/12 09:39:35;;;;;;;12.20;11.00;;;5.50;99.90;;;;;;4973742;28;21524;-84
2021/04/12 09:42:26;;;;;;;13.37;10.93;;;5.70;99.90;;;;;;4963491;28;20984;-84
2021/04/12 09:45:29;;;;;;;8.90;8.00;;;6.00;99.90;;;;;;4944523;28;20887;-85
2021/04/12 09:48:29;;;;;;;11.43;8.60;;;5.60;99.90;;;;;;4963606;28;20450;-84
2021/04/12 09:51:22;;;;;;;9.80;8.90;;;5.50;99.90;;;;;;4955770;28;20459;-86
2021/04/12 09:54:15;;;;;;;8.43;7.57;;;5.80;99.90;;;;;;4974148;28;20690;-86
2021/04/12 09:57:08;;;;;;;10.87;8.53;;;5.80;99.90;;;;;;4969659;28;20468;-85
2021/04/12 09:59:53;;;;;;;9.93;8.93;;;5.80;99.90;;;;;;4957751;28;20492;-84
2021/04/12 10:02:52;;;;;;;10.30;8.80;;;6.00;99.90;;;;;;4971600;28;20508;-85
2021/04/12 10:05:33;;;;;;;9.67;8.40;;;6.20;99.90;;;;;;4977450;28;20472;-87
2021/04/12 10:08:16;;;;;;;8.40;7.60;;;6.00;99.90;;;;;;4974450;28;20871;-84
2021/04/12 10:11:18;;;;;;;8.30;7.37;;;5.80;99.90;;;;;;4977772;28;20443;-83
2021/04/12 10:13:50;;;;;;;8.07;7.27;;;6.00;99.90;;;;;;4944362;28;20439;-84
2021/04/12 10:16:26;;;;;;;7.83;7.03;;;5.70;99.90;;;;;;4972231;28;20445;-86
2021/04/12 10:18:58;;;;;;;6.80;6.20;;;5.80;99.90;;;;;;4969517;28;20465;-84
2021/04/12 10:21:26;;;;;;;7.90;6.67;;;5.70;99.90;;;;;;4953287;28;20897;-86
2021/04/12 10:24:20;;;;;;;7.53;6.50;;;5.90;99.90;;;;;;4958312;28;20445;-86
2021/04/12 10:26:47;;;;;;;5.23;4.47;;;5.70;99.90;;;;;;4970767;28;20449;-86
2021/04/12 10:29:30;;;;;;;5.90;4.53;;;5.70;99.90;;;;;;4963166;28;21419;-85
2021/04/12 10:32:15;;;;;;;6.10;5.50;;;6.00;99.90;;;;;;4959603;28;21004;-87
2021/04/12 10:34:57;;;;;;;6.63;5.10;;;6.00;99.90;;;;;;4950301;28;20517;-84
2021/04/12 10:37:32;;;;;;;5.53;4.87;;;6.20;99.90;;;;;;4971399;28;20993;-84
2021/04/12 10:40:16;;;;;;;4.27;3.87;;;6.30;99.90;;;;;;4973450;28;20440;-84
2021/04/12 10:42:59;;;;;;;5.30;4.17;;;6.60;99.50;;;;;;4974805;28;20488;-84
2021/04/12 10:45:42;;;;;;;5.63;4.87;;;6.70;99.90;;;;;;4958440;28;20440;-87
2021/04/12 10:48:30;;;;;;;4.60;4.20;;;6.80;99.90;;;;;;4973447;28;20847;-87
2021/04/12 10:51:18;;;;;;;5.77;5.27;;;7.00;97.70;;;;;;4975488;28;21002;-88
2021/04/12 10:54:32;;;;;;;4.90;4.50;;;7.20;99.90;;;;;;4959724;28;20962;-87
2021/04/12 10:57:36;;;;;;;5.50;5.00;;;7.00;99.10;;;;;;4973338;28;20507;-87
2021/04/12 11:00:27;;;;;;;4.30;3.90;;;6.80;99.80;;;;;;4961462;28;20505;-85
2021/04/12 11:03:30;;;;;;;5.03;3.07;;;6.70;99.10;;;;;;4967171;28;21054;-85
2021/04/12 11:06:09;;;;;;;4.60;3.23;;;6.70;98.00;;;;;;4963066;28;20498;-84
2021/04/12 11:08:47;;;;;;;3.43;2.90;;;6.60;96.70;;;;;;4972872;28;20445;-85
2021/04/12 11:11:16;;;;;;;3.30;3.00;;;6.40;96.70;;;;;;4976298;28;21316;-85
2021/04/12 11:13:48;;;;;;;4.57;4.17;;;6.20;97.80;;;;;;4957912;28;20457;-86
2021/04/12 11:16:32;;;;;;;6.27;3.43;;;6.20;98.60;;;;;;4970263;28;20449;-86
2021/04/12 11:19:19;;;;;;;5.37;3.50;;;6.30;99.40;;;;;;4961575;28;20446;-84
2021/04/12 11:22:00;;;;;;;4.00;3.70;;;6.50;98.50;;;;;;4959812;28;20483;-84
2021/04/12 11:24:38;;;;;;;4.10;3.53;;;6.50;99.40;;;;;;4973729;28;20503;-85
2021/04/12 11:27:39;;;;;;;3.70;3.40;;;6.70;99.00;;;;;;4972759;28;20440;-85
2021/04/12 11:30:05;;;;;;;3.50;3.20;;;6.60;98.00;;;;;;4920856;28;20454;-84
2021/04/12 11:32:47;;;;;;;4.20;3.90;;;6.80;97.80;;;;;;4945623;28;20503;-85
2021/04/12 11:35:19;;;;;;;3.47;3.17;;;7.00;97.40;;;;;;4970013;28;20306;-85
2021/04/12 11:38:22;;;;;;;3.93;2.90;;;7.20;95.90;;;;;;4958401;28;20478;-83
2021/04/12 11:41:09;;;;;;;3.20;2.63;;;7.10;95.20;;;;;;4948748;28;20472;-83
2021/04/12 11:43:41;;;;;;;3.93;3.07;;;6.80;95.70;;;;;;4971025;28;20450;-84
2021/04/12 11:46:26;;;;;;;4.60;2.70;;;6.60;95.60;;;;;;4971269;28;20835;-84
2021/04/12 11:49:08;;;;;;;3.33;2.50;;;6.50;95.40;;;;;;4966567;28;20445;-84
2021/04/12 11:51:57;;;;;;;4.50;2.97;;;6.50;95.60;;;;;;4948815;28;20457;-84
2021/04/12 11:54:51;;;;;;;5.20;3.37;;;6.40;96.80;;;;;;4973179;28;20548;-84
2021/04/12 11:57:36;;;;;;;4.13;2.90;;;6.60;97.80;;;;;;4967121;28;20453;-85
2021/04/12 12:00:07;;;;;;;3.43;3.03;;;6.50;97.20;;;;;;4943581;28;20476;-83
2021/04/12 12:03:02;;;;;;;2.70;2.50;;;6.60;97.20;;;;;;4971278;28;20557;-83
2021/04/12 12:06:00;;;;;;;3.90;2.60;;;6.80;96.40;;;;;;4953847;28;20459;-82
2021/04/12 12:08:50;;;;;;;3.17;2.87;;;6.90;95.00;;;;;;4959781;28;20447;-82
2021/04/12 12:11:28;;;;;;;2.90;2.70;;;7.20;94.20;;;;;;4971051;28;21234;-85
2021/04/12 12:14:02;;;;;;;3.90;2.40;;;7.90;94.00;;;;;;4957990;28;20442;-83
2021/04/12 12:16:35;;;;;;;2.60;2.40;;;8.30;92.40;;;;;;4957871;28;21189;-83
2021/04/12 12:19:10;;;;;;;3.47;3.17;;;8.60;92.20;;;;;;4951761;28;20494;-85
2021/04/12 12:21:47;;;;;;;3.10;2.60;;;9.90;94.90;;;;;;4969417;28;20466;-84
2021/04/12 12:24:19;;;;;;;2.43;2.27;;;10.40;83.80;;;;;;4954344;28;20439;-84
2021/04/12 12:27:08;;;;;;;4.97;2.83;;;10.50;83.30;;;;;;4957664;28;20442;-83
2021/04/12 12:29:55;;;;;;;3.20;2.50;;;10.80;83.40;;;;;;4960001;28;20470;-82
2021/04/12 12:32:35;;;;;;;2.43;2.10;;;10.20;81.90;;;;;;4961749;28;20981;-81
2021/04/12 12:35:14;;;;;;;3.37;3.07;;;9.90;77.80;;;;;;4965725;28;20464;-82
2021/04/12 12:37:51;;;;;;;3.87;2.90;;;9.40;83.30;;;;;;4966271;28;20448;-82
2021/04/12 12:40:31;;;;;;;3.63;2.30;;;9.10;82.80;;;;;;4955558;28;20501;-82
2021/04/12 12:43:09;;;;;;;2.30;2.20;;;8.50;82.80;;;;;;4975040;28;20486;-82
2021/04/12 12:45:39;;;;;;;2.40;2.20;;;7.60;81.00;;;;;;4948391;28;20723;-79
2021/04/12 12:48:15;;;;;;;2.97;2.13;;;7.60;84.40;;;;;;4971153;28;20455;-81
2021/04/12 12:50:53;;;;;;;2.47;2.27;;;7.50;82.20;;;;;;4974762;28;20440;-80
2021/04/12 12:53:21;;;;;;;5.67;3.23;;;7.30;86.50;;;;;;4990313;28;20524;-81
2021/04/12 12:55:57;;;;;;;4.63;2.70;;;7.20;87.40;;;;;;4990089;28;20452;-80
2021/04/12 12:58:26;;;;;;;3.00;2.80;;;7.10;88.00;;;;;;4976945;28;20487;-81
2021/04/12 13:00:55;;;;;;;4.20;2.53;;;7.10;90.80;;;;;;4973847;28;20476;-80
2021/04/12 13:03:38;;;;;;;3.53;2.60;;;7.10;90.90;;;;;;4955684;28;20484;-80
2021/04/12 13:06:17;;;;;;;3.07;2.77;;;7.30;91.40;;;;;;4969098;28;20456;-82
2021/04/12 13:09:04;;;;;;;5.60;3.03;;;7.50;92.00;;;;;;4958009;28;20508;-81
2021/04/12 13:11:54;;;;;;;5.83;2.60;;;7.80;91.60;;;;;;4975470;28;20449;-81
2021/04/12 13:14:37;;;;;;;3.17;2.40;;;8.40;89.00;;;;;;4963512;28;20483;-81
2021/04/12 13:17:31;;;;;;;4.23;2.30;;;8.60;84.90;;;;;;4954916;28;22109;-81
2021/04/12 13:20:01;;;;;;;4.30;2.70;;;9.00;83.90;;;;;;4958751;28;20832;-81
2021/04/12 13:22:31;;;;;;;5.00;2.67;;;9.20;82.20;;;;;;4974829;28;20481;-81
2021/04/12 13:25:21;;;;;;;2.90;2.70;;;9.40;83.00;;;;;;4971672;28;20433;-81
2021/04/12 13:27:51;;;;;;;3.30;2.57;;;10.10;80.80;;;;;;4958082;28;20462;-81
2021/04/12 13:30:23;;;;;;;4.00;2.77;;;10.10;77.90;;;;;;4956170;28;20461;-82
2021/04/12 13:32:58;;;;;;;4.73;2.43;;;10.50;80.00;;;;;;4950359;28;20450;-82
2021/04/12 13:35:26;;;;;;;3.50;2.77;;;11.00;77.70;;;;;;4955455;28;20445;-85
2021/04/12 13:38:10;;;;;;;3.37;3.07;;;11.70;74.40;;;;;;4967399;28;20466;-84
2021/04/12 13:41:07;;;;;;;3.13;2.80;;;12.10;69.90;;;;;;4971610;28;20448;-82
2021/04/12 13:43:35;;;;;;;4.47;2.90;;;12.70;65.10;;;;;;4972350;28;20551;-82
2021/04/12 13:46:25;;;;;;;3.27;3.07;;;13.40;62.70;;;;;;4972529;28;20527;-82
2021/04/12 13:49:13;;;;;;;4.00;2.87;;;11.90;61.70;;;;;;4969094;28;20504;-81
2021/04/12 13:51:46;;;;;;;3.50;2.30;;;10.40;65.80;;;;;;4954961;28;21146;-82
2021/04/12 13:54:20;;;;;;;3.10;2.40;;;10.20;66.40;;;;;;4956028;28;20441;-82
2021/04/12 13:56:50;;;;;;;2.80;2.60;;;10.00;66.80;;;;;;4958119;28;20846;-81
2021/04/12 13:59:28;;;;;;;3.90;2.60;;;10.20;67.20;;;;;;4971188;28;20456;-81
2021/04/12 14:02:12;;;;;;;3.37;2.80;;;9.80;69.60;;;;;;4959886;28;20477;-81
2021/04/12 14:04:41;;;;;;;6.17;2.60;;;9.50;72.10;;;;;;4976000;28;20449;-81
2021/04/12 14:07:22;;;;;;;2.77;2.50;;;9.20;75.10;;;;;;4959514;28;20926;-82
2021/04/12 14:10:02;;;;;;;3.57;2.40;;;9.10;75.30;;;;;;4959614;28;20448;-81
2021/04/12 14:12:31;;;;;;;4.03;2.20;;;9.10;76.20;;;;;;4961773;28;21042;-81
2021/04/12 14:15:05;;;;;;;2.30;1.87;;;8.50;75.70;;;;;;4974232;28;20898;-81
2021/04/12 14:17:39;;;;;;;3.03;1.60;;;8.20;72.20;;;;;;4973586;28;20704;-81
2021/04/12 14:20:26;;;;;;;2.37;2.17;;;8.00;72.30;;;;;;4977369;28;20480;-81
2021/04/12 14:22:54;;;;;;;4.30;1.90;;;7.90;72.40;;;;;;4959948;28;20904;-82
2021/04/12 14:25:33;;;;;;;2.40;1.80;;;8.00;73.10;;;;;;4993494;28;20519;-81
2021/04/12 14:28:16;;;;;;;4.80;1.53;;;7.90;74.10;;;;;;4957818;28;20455;-82
2021/04/12 14:30:49;;;;;;;1.83;1.70;;;7.80;72.30;;;;;;4959147;28;20874;-82
2021/04/12 14:33:39;;;;;;;2.40;1.37;;;7.90;72.60;;;;;;4976226;28;20475;-81
2021/04/12 14:36:26;;;;;;;2.67;1.60;;;7.60;72.10;;;;;;4939383;28;21975;-81